Time;durP1;ratioP1;P1;durP2;ratioP2;P2;SDS_P1;SDS_P2;PMS_P1;PMS_P2;Temp;Humidity;BMP_temperature;BMP_pressure;BME280_temperature;BME280_humidity;BME280_pressure;Samples;Min_cycle;Max_cycle;Signal;HPM_P1;HPM_P2
2022/01/22 00:02:24;;;;;;;;;11.33;9.67;;;;;7.01;63.21;103246.91;6308338;22;45418;-90
2022/01/22 00:04:49;;;;;;;;;9.33;8.00;;;;;6.55;63.31;103166.09;6308513;22;45782;-90
2022/01/22 00:07:15;;;;;;;;;10.67;9.00;;;;;6.99;63.41;103230.06;6309437;22;45485;-90
2022/01/22 00:09:47;;;;;;;;;10.33;9.00;;;;;6.46;63.14;103137.31;6309774;22;47353;-90
2022/01/22 00:12:23;;;;;;;;;8.67;7.00;;;;;6.38;62.63;103120.91;6309689;22;45429;-90
2022/01/22 00:14:49;;;;;;;;;11.00;11.00;;;;;6.71;62.84;103187.53;6310115;22;45335;-90
2022/01/22 00:17:14;;;;;;;;;12.67;11.00;;;;;6.58;62.75;103147.84;6310078;22;45600;-90
2022/01/22 00:19:40;;;;;;;;;11.33;11.00;;;;;6.56;63.16;103147.72;6309786;22;46927;-90
2022/01/22 00:22:05;;;;;;;;;11.00;10.00;;;;;6.37;63.57;103107.63;6309526;22;46057;-90
2022/01/22 00:24:37;;;;;;;;;10.33;10.33;;;;;6.62;62.80;103161.34;6309680;22;45212;-90
2022/01/22 00:27:03;;;;;;;;;12.00;7.00;;;;;6.08;63.24;103054.56;6310616;22;45478;-90
2022/01/22 00:29:28;;;;;;;;;8.00;8.00;;;;;6.53;62.98;103135.22;6309871;22;47176;-90
2022/01/22 00:31:54;;;;;;;;;7.67;7.67;;;;;6.74;63.63;103177.19;6310297;22;45470;-89
2022/01/22 00:34:19;;;;;;;;;11.00;7.33;;;;;6.70;62.94;103168.13;6309479;22;45202;-90
2022/01/22 00:36:44;;;;;;;;;13.33;11.00;;;;;6.53;63.66;103140.50;6310458;22;45479;-90
2022/01/22 00:39:10;;;;;;;;;12.67;11.33;;;;;6.44;63.54;103129.28;6309770;22;48187;-89
2022/01/22 00:41:35;;;;;;;;;11.00;8.00;;;;;6.48;63.60;103136.63;6310246;22;45560;-89
2022/01/22 00:44:01;;;;;;;;;9.00;7.00;;;;;6.60;63.39;103148.88;6310469;22;45118;-90
2022/01/22 00:46:26;;;;;;;;;10.67;9.00;;;;;6.67;63.87;103151.16;6309570;22;45461;-89
2022/01/22 00:48:51;;;;;;;;;10.00;10.00;;;;;6.68;64.21;103150.34;6309183;22;46928;-89
2022/01/22 00:51:17;;;;;;;;;11.67;10.67;;;;;6.40;63.93;103105.19;6309861;22;45429;-89
2022/01/22 00:53:42;;;;;;;;;14.33;11.00;;;;;6.72;63.56;103169.97;6310075;22;45360;-90
2022/01/22 00:56:08;;;;;;;;;10.00;10.00;;;;;6.17;63.30;103075.41;6310361;22;45628;-90
2022/01/22 00:58:33;;;;;;;;;16.33;11.33;;;;;7.07;63.95;103222.69;6309635;22;48221;-90
2022/01/22 01:00:59;;;;;;;;;12.00;11.33;;;;;6.62;63.85;103136.72;6309724;22;45280;-90
2022/01/22 01:03:25;;;;;;;;;13.33;11.33;;;;;6.73;63.68;103159.53;6309338;22;45290;-90
2022/01/22 01:05:50;;;;;;;;;11.67;11.33;;;;;6.73;63.44;103159.53;6309827;22;45397;-90
2022/01/22 01:08:16;;;;;;;;;15.33;13.33;;;;;6.39;64.11;103103.38;6310035;22;47960;-90
2022/01/22 01:10:41;;;;;;;;;9.33;8.00;;;;;6.44;63.99;103128.34;6304129;22;45336;-90
2022/01/22 01:13:06;;;;;;;;;13.33;10.67;;;;;6.44;63.81;103100.28;6305132;22;45889;-90
2022/01/22 01:15:41;;;;;;;;;10.67;8.00;;;;;6.61;63.53;103122.63;6304870;22;45430;-90
2022/01/22 01:34:19;;;;;;;;;9.67;9.67;;;;;6.75;63.66;103155.28;6306229;22;45468;-90
2022/01/22 01:36:46;;;;;;;;;14.33;11.67;;;;;6.63;64.02;103126.28;6304815;22;45498;-90
2022/01/22 01:39:19;;;;;;;;;17.00;11.67;;;;;6.28;63.81;103073.59;6306588;22;46450;-90
2022/01/22 01:41:53;;;;;;;;;9.67;9.67;;;;;6.60;63.78;103126.06;6304720;22;45974;-90
2022/01/22 01:44:19;;;;;;;;;13.67;12.00;;;;;6.39;63.60;103106.94;6304505;22;45479;-90
2022/01/22 01:46:47;;;;;;;;;13.33;12.00;;;;;6.46;63.61;103097.75;6304462;22;45245;-90
2022/01/22 01:49:13;;;;;;;;;12.33;11.67;;;;;6.24;63.61;103069.78;6305763;22;45322;-90
2022/01/22 01:51:38;;;;;;;;;11.67;11.00;;;;;6.66;64.06;103149.31;6303710;22;45277;-90
2022/01/22 01:59:53;;;;;;;;;10.00;10.00;;;;;6.87;64.18;103197.47;6180017;23;45322;-90
2022/01/22 02:02:19;;;;;;;;;10.33;8.33;;;;;6.49;64.65;103122.63;6180229;23;45602;-90
2022/01/22 02:04:45;;;;;;;;;11.00;9.33;;;;;6.54;64.19;103133.53;6180655;23;45315;-89
2022/01/22 02:07:10;;;;;;;;;10.67;10.00;;;;;6.67;64.10;103152.06;6181903;23;45486;-90
2022/01/22 02:09:38;;;;;;;;;11.33;8.00;;;;;6.70;64.33;103147.03;6183950;23;46837;-90
2022/01/22 02:12:15;;;;;;;;;8.00;7.00;;;;;6.33;64.42;103075.75;6181243;23;45335;-91
2022/01/22 02:25:23;;;;;;;;;13.00;9.00;;;;;6.32;64.29;103057.19;6181052;23;45160;-90
2022/01/22 02:27:48;;;;;;;;;12.67;11.67;;;;;6.14;64.64;103035.66;6237537;22;45284;-90
2022/01/22 02:30:20;;;;;;;;;11.67;10.67;;;;;6.62;64.72;103102.44;6303868;22;47810;-90
2022/01/22 02:35:26;;;;;;;;;12.67;11.67;;;;;6.51;63.89;103104.28;6306271;22;45258;-90
2022/01/22 02:37:58;;;;;;;;;12.00;8.67;;;;;6.77;64.58;103127.28;6304393;22;45364;-91
2022/01/22 02:40:30;;;;;;;;;9.33;8.33;;;;;6.65;63.86;103105.28;6303667;22;47101;-90
2022/01/22 02:42:58;;;;;;;;;10.33;10.33;;;;;6.97;64.21;103165.66;6304079;22;45273;-90
2022/01/22 02:45:24;;;;;;;;;11.00;10.00;;;;;6.63;64.67;103099.00;6304173;22;45229;-90
2022/01/22 02:47:51;;;;;;;;;9.67;7.33;;;;;6.14;64.42;103007.56;6303983;22;45454;-90
2022/01/22 02:50:20;;;;;;;;;9.33;7.00;;;;;6.32;63.91;103054.56;6304131;22;47110;-90
2022/01/22 02:52:46;;;;;;;;;8.00;8.00;;;;;6.82;64.32;103135.53;6304015;22;45229;-91
2022/01/22 02:55:13;;;;;;;;;9.67;9.33;;;;;7.10;64.48;103178.06;6304577;22;45470;-91
2022/01/22 02:57:41;;;;;;;;;8.67;8.33;;;;;6.56;64.47;103107.25;6303729;22;45434;-90
2022/01/22 03:00:11;;;;;;;;;8.67;8.00;;;;;6.33;64.70;103056.41;6304287;22;47045;-91
2022/01/22 03:02:37;;;;;;;;;11.00;7.33;;;;;6.51;64.91;103085.81;6303771;22;45308;-90
2022/01/22 03:05:03;;;;;;;;;7.67;7.67;;;;;6.47;64.45;103092.59;6304847;22;45315;-90
2022/01/22 03:07:29;;;;;;;;;8.67;7.00;;;;;6.45;64.90;103088.00;6303479;22;45197;-90
2022/01/22 03:10:00;;;;;;;;;10.00;8.00;;;;;6.25;64.68;103052.28;6303304;22;47830;-90
2022/01/22 03:15:30;;;;;;;;;7.67;7.67;;;;;6.47;65.02;103087.31;6306212;22;45402;-90
2022/01/22 03:17:54;;;;;;;;;8.33;6.33;;;;;6.71;64.91;103129.50;6305430;22;45236;-90
2022/01/22 03:28:01;;;;;;;;;8.00;8.00;;;;;6.30;64.71;103050.88;6305625;22;45363;-90
2022/01/22 03:30:27;;;;;;;;;9.33;9.33;;;;;6.32;64.58;103042.28;6303822;22;47076;-90
2022/01/22 03:32:55;;;;;;;;;16.33;12.00;;;;;6.32;64.65;103051.91;6304317;22;45399;-90
2022/01/22 03:37:51;;;;;;;;;10.00;7.33;;;;;6.70;65.23;103135.56;6310406;22;45136;-90
2022/01/22 03:40:21;;;;;;;;;10.00;10.00;;;;;6.54;64.32;103115.06;6310447;22;46041;-90
2022/01/22 03:42:46;;;;;;;;;7.67;7.67;;;;;6.72;64.79;103135.66;6310558;22;45301;-90
2022/01/22 03:45:12;;;;;;;;;7.67;7.67;;;;;6.69;64.76;103133.72;6316457;22;45260;-89
2022/01/22 03:47:39;;;;;;;;;14.33;10.33;;;;;6.59;64.73;103118.03;6315408;22;45174;-90
2022/01/22 03:50:06;;;;;;;;;12.00;8.00;;;;;7.11;65.15;103202.72;6315013;22;47621;-89
2022/01/22 03:52:31;;;;;;;;;8.67;8.00;;;;;6.63;64.96;103135.91;6315215;22;45432;-90
2022/01/22 03:54:57;;;;;;;;;11.00;8.00;;;;;6.75;64.64;103147.38;6314829;22;45327;-90
2022/01/22 03:57:23;;;;;;;;;10.67;8.33;;;;;6.39;64.94;103080.56;6309116;22;45522;-90
2022/01/22 03:59:51;;;;;;;;;10.00;10.00;;;;;6.27;65.22;103077.97;6304899;22;47233;-91
2022/01/22 04:04:56;;;;;;;;;8.67;5.33;;;;;6.52;64.86;103099.09;6302783;22;45136;-90
2022/01/22 04:10:04;;;;;;;;;8.00;7.00;;;;;6.70;64.87;103107.44;6306384;22;45215;-90
2022/01/22 04:13:18;;;;;;;;;10.00;7.00;;;;;6.50;65.14;103077.00;6305009;22;45277;-90
2022/01/22 04:15:21;;;;;;;;;12.00;8.33;;;;;6.63;64.84;103096.34;6283911;22;45326;-90
2022/01/22 04:26:11;;;;;;;;;11.00;8.67;;;;;6.26;65.62;103055.03;6306264;22;45345;-90
2022/01/22 04:28:36;;;;;;;;;7.33;7.00;;;;;6.53;65.63;103111.50;6306120;22;45272;-90
2022/01/22 04:31:02;;;;;;;;;10.67;10.00;;;;;6.39;65.73;103071.75;6307180;22;48307;-88
2022/01/22 04:33:27;;;;;;;;;11.00;9.33;;;;;7.04;65.79;103182.88;6307504;22;45308;-90
2022/01/22 04:35:52;;;;;;;;;6.67;6.67;;;;;6.39;65.75;103075.28;6306718;22;45335;-90
2022/01/22 04:38:18;;;;;;;;;9.67;8.00;;;;;6.31;65.82;103061.53;6306542;22;45304;-89
2022/01/22 04:40:43;;;;;;;;;10.67;7.67;;;;;6.31;65.64;103064.16;6304610;22;46799;-90
2022/01/22 04:43:10;;;;;;;;;12.67;9.67;;;;;6.73;65.90;103133.13;6304247;22;45689;-90
2022/01/22 04:56:32;;;;;;;;;11.00;9.67;;;;;6.26;66.14;103086.66;6306249;22;45334;-89
2022/01/22 04:58:57;;;;;;;;;15.67;15.67;;;;;6.35;66.21;103091.69;6305008;22;45262;-90
2022/01/22 05:01:22;;;;;;;;;13.33;13.33;;;;;6.19;66.40;103060.66;6304422;22;47174;-89
2022/01/22 05:03:48;;;;;;;;;19.67;17.33;;;;;6.45;66.21;103117.00;6304987;22;45237;-90
2022/01/22 05:06:13;;;;;;;;;14.67;12.67;;;;;6.56;66.41;103116.09;6304897;22;45172;-90
2022/01/22 05:08:38;;;;;;;;;21.00;14.00;;;;;6.92;65.79;103193.47;6304435;22;45371;-90
2022/01/22 05:11:04;;;;;;;;;17.33;14.33;;;;;6.15;65.76;103059.50;6304342;22;48079;-90
2022/01/22 05:13:29;;;;;;;;;15.33;15.33;;;;;6.35;66.38;103096.97;6304836;22;45325;-90
2022/01/22 05:15:55;;;;;;;;;18.00;16.00;;;;;6.26;66.07;103088.34;6304513;22;45217;-89
2022/01/22 05:18:20;;;;;;;;;18.33;12.00;;;;;6.39;66.27;103103.38;6305195;22;45435;-90
2022/01/22 05:20:54;;;;;;;;;8.00;6.67;;;;;5.98;66.59;103026.63;6304086;22;47533;-89
2022/01/22 05:23:23;;;;;;;;;14.00;14.00;;;;;6.28;66.61;103092.03;6304329;22;45313;-89
2022/01/22 05:25:59;;;;;;;;;16.00;12.00;;;;;6.34;66.68;103096.06;6306006;22;44803;-89
2022/01/22 05:38:43;;;;;;;;;19.00;16.00;;;;;6.52;66.44;103141.28;6309058;22;45320;-90
2022/01/22 05:41:11;;;;;;;;;17.00;17.00;;;;;6.92;67.16;103204.03;6305810;22;46916;-90
2022/01/22 05:43:36;;;;;;;;;21.67;13.00;;;;;6.61;66.69;103145.44;6304269;22;45787;-90
2022/01/22 05:46:02;;;;;;;;;22.33;18.33;;;;;5.77;66.79;103002.19;6304790;22;45217;-89
2022/01/22 05:48:27;;;;;;;;;20.67;15.67;;;;;6.49;67.04;103127.91;6304934;22;45292;-90
2022/01/22 05:50:57;;;;;;;;;22.67;20.33;;;;;6.21;66.79;103098.56;6304245;22;47444;-89
2022/01/22 06:01:01;;;;;;;;;16.33;16.00;;;;;6.37;67.47;103123.44;6305590;22;45389;-88
2022/01/22 06:03:27;;;;;;;;;20.33;20.00;;;;;6.33;66.92;103104.75;6303635;22;45154;-89
2022/01/22 06:05:52;;;;;;;;;19.00;13.67;;;;;6.53;66.93;103144.88;6303074;22;45204;-88
2022/01/22 06:08:18;;;;;;;;;18.00;16.33;;;;;6.48;66.77;103141.91;6303805;22;45229;-89
2022/01/22 06:10:47;;;;;;;;;18.33;12.00;;;;;6.99;67.21;103210.66;6303790;22;47461;-88
2022/01/22 06:13:19;;;;;;;;;26.67;19.00;;;;;6.60;67.24;103167.34;6303706;22;45445;-89
2022/01/22 06:15:44;;;;;;;;;25.33;18.00;;;;;6.34;66.77;103101.34;6304319;22;45226;-88
2022/01/22 06:18:09;;;;;;;;;16.33;15.00;;;;;6.26;67.09;103084.03;6306218;22;45142;-88
2022/01/22 06:20:35;;;;;;;;;17.00;14.33;;;;;6.46;66.99;103118.84;6303655;22;47110;-89
2022/01/22 06:23:01;;;;;;;;;14.33;11.67;;;;;6.99;67.07;103202.72;6303890;22;45209;-88
2022/01/22 06:25:27;;;;;;;;;25.33;18.67;;;;;6.61;66.72;103154.28;6304143;22;45415;-89
2022/01/22 06:27:52;;;;;;;;;27.33;20.00;;;;;6.43;67.52;103127.44;6303741;22;45541;-89
2022/01/22 06:30:19;;;;;;;;;26.33;17.00;;;;;6.80;67.62;103185.53;6303730;22;47040;-88
2022/01/22 06:32:44;;;;;;;;;19.67;19.33;;;;;6.99;67.26;103215.91;6303618;22;45369;-89
2022/01/22 06:35:10;;;;;;;;;17.00;16.33;;;;;6.49;67.33;103121.72;6303727;22;45644;-88
2022/01/22 06:37:35;;;;;;;;;23.67;20.67;;;;;6.35;67.36;103102.22;6304647;22;45206;-89
2022/01/22 06:42:33;;;;;;;;;19.33;16.00;;;;;6.54;67.54;103136.16;6305955;22;45252;-87
2022/01/22 06:45:00;;;;;;;;;19.00;17.00;;;;;6.65;67.65;103142.22;6304290;22;45382;-90
2022/01/22 06:47:27;;;;;;;;;19.67;15.00;;;;;6.68;67.36;103158.25;6304162;22;45305;-90
2022/01/22 06:49:53;;;;;;;;;20.00;16.00;;;;;6.12;67.14;103071.53;6303252;22;47175;-90
2022/01/22 06:52:19;;;;;;;;;23.33;21.67;;;;;6.48;67.49;103123.44;6304263;22;45449;-90
2022/01/22 06:54:45;;;;;;;;;20.00;17.00;;;;;6.80;67.39;103193.47;6303846;22;45376;-90
2022/01/22 06:57:12;;;;;;;;;21.67;18.67;;;;;6.65;68.16;103171.22;6304265;22;45206;-90
2022/01/22 06:59:37;;;;;;;;;24.67;21.00;;;;;6.43;67.50;103129.19;6303774;22;47067;-90
2022/01/22 07:02:04;;;;;;;;;19.67;17.00;;;;;6.97;67.63;103233.38;6303742;22;45327;-90
2022/01/22 07:04:31;;;;;;;;;20.67;16.33;;;;;6.70;67.53;103207.69;6303842;22;45294;-90
2022/01/22 07:06:57;;;;;;;;;18.33;15.00;;;;;5.49;67.68;102986.03;6305275;22;45332;-90
2022/01/22 07:09:23;;;;;;;;;16.67;16.67;;;;;6.97;67.62;103225.47;6305277;22;47980;-89
2022/01/22 07:11:49;;;;;;;;;15.33;14.33;;;;;6.76;67.48;103172.94;6303695;22;45195;-89
2022/01/22 07:14:16;;;;;;;;;25.33;19.33;;;;;5.91;67.11;103033.94;6303774;22;45266;-89
2022/01/22 07:16:41;;;;;;;;;22.00;20.67;;;;;6.58;67.88;103150.47;6304974;22;45405;-89
2022/01/22 07:19:06;;;;;;;;;22.67;19.33;;;;;6.29;67.40;103101.78;6304495;22;47356;-90
2022/01/22 07:21:32;;;;;;;;;25.00;21.00;;;;;6.48;67.98;103115.53;6305743;22;45230;-90
2022/01/22 07:26:30;;;;;;;;;22.33;19.00;;;;;6.46;67.62;103121.50;6312457;22;45640;-89
2022/01/22 07:28:56;;;;;;;;;25.33;23.00;;;;;6.76;67.59;103175.56;6313618;22;45322;-90
2022/01/22 07:31:23;;;;;;;;;26.67;21.33;;;;;7.13;67.68;103241.63;6309921;22;45294;-91
2022/01/22 07:33:49;;;;;;;;;28.00;23.00;;;;;7.16;67.75;103247.13;6305431;22;45488;-92
2022/01/22 07:36:14;;;;;;;;;24.67;21.67;;;;;6.41;67.54;103105.31;6305583;22;45255;-91
2022/01/22 07:38:39;;;;;;;;;25.67;24.00;;;;;6.80;67.82;103185.53;6305529;22;47928;-90
2022/01/22 07:41:08;;;;;;;;;26.00;25.00;;;;;7.08;67.45;103216.59;6305654;22;45371;-92
2022/01/22 07:43:35;;;;;;;;;27.67;24.33;;;;;6.42;67.46;103096.59;6305528;22;45250;-91
2022/01/22 07:46:00;;;;;;;;;28.67;22.00;;;;;6.32;67.29;103083.56;6308684;22;45502;-91
2022/01/22 07:48:25;;;;;;;;;29.33;22.00;;;;;6.63;67.43;103141.19;6307047;22;47590;-91
2022/01/22 07:50:51;;;;;;;;;17.67;16.33;;;;;6.75;67.37;103154.34;6307826;22;45268;-90
2022/01/22 07:53:16;;;;;;;;;27.00;22.33;;;;;6.74;67.25;103166.66;6305459;22;45156;-91
2022/01/22 07:55:42;;;;;;;;;26.33;22.33;;;;;6.93;67.60;103194.38;6305670;22;45312;-91
2022/01/22 07:58:07;;;;;;;;;26.00;24.33;;;;;6.81;67.42;103179.47;6305232;22;48314;-91
2022/01/22 08:00:32;;;;;;;;;28.33;25.33;;;;;6.72;67.43;103176.16;6305434;22;45345;-90
2022/01/22 08:02:58;;;;;;;;;23.00;22.33;;;;;7.27;67.61;103260.19;6305160;22;45287;-90
2022/01/22 08:05:23;;;;;;;;;22.67;21.00;;;;;7.29;67.78;103267.41;6305640;22;45434;-91
2022/01/22 08:07:49;;;;;;;;;23.33;18.67;;;;;6.55;67.37;103118.63;6304394;22;47503;-91
2022/01/22 08:10:14;;;;;;;;;29.33;26.33;;;;;6.65;67.19;103144.84;6304883;22;45429;-91
2022/01/22 08:12:42;;;;;;;;;23.00;22.67;;;;;7.12;67.11;103239.78;6305035;22;45512;-91
2022/01/22 08:15:09;;;;;;;;;28.00;25.67;;;;;6.55;67.55;103137.06;6305118;22;45413;-91
2022/01/22 08:17:35;;;;;;;;;26.00;20.00;;;;;6.80;67.84;103188.19;6305143;22;47841;-91
2022/01/22 08:20:01;;;;;;;;;30.67;23.00;;;;;7.31;67.39;103267.53;6304699;22;45245;-92
2022/01/22 08:22:27;;;;;;;;;31.33;28.33;;;;;6.87;67.61;103194.84;6305312;22;45230;-91
2022/01/22 08:24:54;;;;;;;;;30.33;27.00;;;;;7.05;67.28;103224.31;6304207;22;45277;-91
2022/01/22 08:29:52;;;;;;;;;29.00;22.33;;;;;7.28;67.46;103251.47;6307494;22;45291;-91
2022/01/22 08:32:57;;;;;;;;;31.67;28.33;;;;;7.01;67.32;103214.31;6304871;22;45315;-91
2022/01/22 08:38:03;;;;;;;;;37.33;29.67;;;;;6.96;67.17;103207.78;6306261;22;45288;-90
2022/01/22 08:40:29;;;;;;;;;35.00;27.00;;;;;7.04;66.90;103211.91;6305232;22;45272;-91
2022/01/22 08:42:54;;;;;;;;;30.33;27.67;;;;;7.13;66.91;103230.13;6307525;22;45206;-91
2022/01/22 08:45:19;;;;;;;;;32.67;30.67;;;;;6.78;66.29;103173.03;6304860;22;45185;-91
2022/01/22 08:47:45;;;;;;;;;30.67;27.33;;;;;6.90;67.16;103183.59;6304904;22;47245;-91
2022/01/22 08:50:10;;;;;;;;;34.00;25.00;;;;;6.95;66.79;103198.97;6304379;22;45315;-90
2022/01/22 08:52:36;;;;;;;;;27.67;27.00;;;;;6.93;66.85;103199.66;6305583;22;45305;-91
2022/01/22 08:55:06;;;;;;;;;32.00;28.00;;;;;6.73;65.69;103159.53;6306394;22;45416;-91
2022/01/22 08:57:33;;;;;;;;;36.67;31.00;;;;;6.69;66.18;103152.19;6304697;22;47030;-91
2022/01/22 08:59:58;;;;;;;;;30.67;28.00;;;;;6.70;65.32;103169.84;6304223;22;45453;-91
2022/01/22 09:02:24;;;;;;;;;34.33;27.67;;;;;6.63;65.74;103178.13;6305472;22;45485;-91
2022/01/22 09:04:51;;;;;;;;;29.67;25.00;;;;;6.96;65.88;103224.56;6305136;22;45461;-91
2022/01/22 09:07:17;;;;;;;;;28.33;26.00;;;;;7.05;65.66;103240.16;6306744;22;47017;-91
2022/01/22 09:09:42;;;;;;;;;30.00;29.67;;;;;6.89;65.86;103208.16;6308843;22;45826;-91
2022/01/22 09:12:09;;;;;;;;;32.00;27.00;;;;;7.04;65.68;103240.94;6304000;22;45304;-91
2022/01/22 09:14:35;;;;;;;;;25.33;20.33;;;;;6.61;65.55;103171.81;6304826;22;45346;-91
2022/01/22 09:17:00;;;;;;;;;29.67;26.67;;;;;7.12;66.24;103292.59;6304339;22;47320;-91
2022/01/22 09:19:33;;;;;;;;;33.67;31.67;;;;;6.34;66.14;103118.84;6304428;22;45312;-90
2022/01/22 09:22:01;;;;;;;;;38.67;34.33;;;;;7.37;65.87;103300.59;6304581;22;45375;-91
2022/01/22 09:24:26;;;;;;;;;32.00;27.33;;;;;7.09;65.66;103260.69;6304771;22;45259;-91
2022/01/22 09:26:51;;;;;;;;;40.33;31.33;;;;;6.69;65.85;103189.13;6305045;22;46929;-91
2022/01/22 09:29:17;;;;;;;;;31.33;28.00;;;;;7.34;66.16;103317.91;6304233;22;45801;-91
2022/01/22 09:31:44;;;;;;;;;30.33;27.00;;;;;7.02;66.16;103259.31;6304998;22;45210;-86
2022/01/22 09:34:09;;;;;;;;;37.00;30.33;;;;;6.72;66.04;103228.00;6303145;22;45181;-86
2022/01/22 09:36:35;;;;;;;;;39.33;33.67;;;;;7.02;66.06;103268.97;6304806;22;46109;-82
2022/01/22 09:39:02;;;;;;;;;34.33;31.00;;;;;7.32;66.24;103315.16;6303843;22;45456;-81
2022/01/22 09:41:28;;;;;;;;;36.00;29.00;;;;;7.00;65.39;103266.22;6303254;22;45367;-85
2022/01/22 09:43:55;;;;;;;;;27.67;24.00;;;;;7.37;66.02;103327.00;6302553;22;45408;-81
2022/01/22 09:46:21;;;;;;;;;33.33;26.00;;;;;7.43;65.72;103321.25;6302271;22;47289;-81
2022/01/22 09:48:49;;;;;;;;;35.33;31.00;;;;;7.08;65.10;103263.22;6305082;22;45298;-85
2022/01/22 09:51:15;;;;;;;;;37.00;33.33;;;;;6.90;65.79;103245.19;6302824;22;45394;-86
2022/01/22 09:53:42;;;;;;;;;43.00;32.00;;;;;7.49;65.55;103318.13;6304768;22;45180;-85
2022/01/22 09:56:09;;;;;;;;;28.00;23.67;;;;;7.08;65.45;103243.00;6302915;22;47411;-84
2022/01/22 09:58:35;;;;;;;;;30.67;28.33;;;;;7.32;65.13;103291.41;6304472;22;45356;-87
2022/01/22 10:01:27;;;;;;;;;28.00;26.33;;;;;-147.59;100.00;57188.72;6302214;22;45531;-85
2022/01/22 10:03:56;;;;;;;;;42.67;32.33;;;;;-147.59;100.00;57188.72;6303536;22;45391;-86
2022/01/22 10:06:25;;;;;;;;;29.00;25.67;;;;;-147.59;100.00;57188.72;6304660;22;46258;-86
2022/01/22 10:08:56;;;;;;;;;32.33;29.00;;;;;-147.59;100.00;57188.72;6303116;22;45209;-86
2022/01/22 10:11:25;;;;;;;;;34.00;29.33;;;;;-147.59;100.00;57188.72;6304352;22;45285;-87
2022/01/22 10:13:53;;;;;;;;;35.33;30.33;;;;;-147.59;100.00;57188.72;6303056;22;45291;-87
2022/01/22 10:16:24;;;;;;;;;37.33;33.00;;;;;-147.59;100.00;57188.72;6303114;22;48026;-86
2022/01/22 10:19:18;;;;;;;;;35.67;31.00;;;;;-147.59;100.00;57188.72;6303205;22;45820;-86
2022/01/22 10:21:47;;;;;;;;;33.00;28.00;;;;;-147.59;100.00;57188.72;6302994;22;45282;-87
2022/01/22 10:24:36;;;;;;;;;32.00;28.67;;;;;-147.59;100.00;57188.72;6302605;22;45363;-86
2022/01/22 10:27:36;;;;;;;;;28.67;25.67;;;;;-147.59;100.00;57188.72;6303650;22;46844;-93
2022/01/22 10:30:08;;;;;;;;;30.67;26.67;;;;;-147.59;100.00;57188.72;6303865;22;45446;-85
2022/01/22 10:32:46;;;;;;;;;27.67;21.33;;;;;-147.59;100.00;57188.72;6305918;22;45166;-89
2022/01/22 10:35:26;;;;;;;;;28.67;25.67;;;;;-147.59;100.00;57188.72;6302970;22;45192;-86
2022/01/22 10:37:58;;;;;;;;;25.00;21.33;;;;;-147.59;100.00;57188.72;6296677;22;47117;-88
2022/01/22 10:40:29;;;;;;;;;27.67;22.00;;;;;-147.59;100.00;57188.72;6303697;22;45442;-86
2022/01/22 10:49:05;;;;;;;;;29.33;24.00;;;;;-147.59;100.00;57188.72;6306366;22;45415;-84
2022/01/22 10:51:42;;;;;;;;;26.33;22.67;;;;;-147.59;100.00;57188.72;6302406;22;45697;-78
2022/01/22 10:54:11;;;;;;;;;26.33;23.00;;;;;-147.59;100.00;57188.72;6306694;22;45378;-91
2022/01/22 10:56:42;;;;;;;;;28.00;22.67;;;;;-147.59;100.00;57188.72;6306367;22;45320;-87
2022/01/22 10:59:17;;;;;;;;;20.33;19.67;;;;;-147.59;100.00;57188.72;6304733;22;47781;-92
2022/01/22 11:01:59;;;;;;;;;23.67;21.00;;;;;-147.59;100.00;57188.72;6307974;22;45531;-89
2022/01/22 11:04:38;;;;;;;;;33.33;24.00;;;;;-147.59;100.00;57188.72;6305869;22;45326;-90
2022/01/22 11:07:06;;;;;;;;;25.00;21.00;;;;;-147.59;100.00;57188.72;6306847;22;45383;-89
2022/01/22 11:09:32;;;;;;;;;19.67;19.67;;;;;-147.59;100.00;57188.72;6304586;22;46990;-88
2022/01/22 11:12:01;;;;;;;;;26.00;19.67;;;;;-147.59;100.00;57188.72;6276579;22;45242;-83
2022/01/22 11:14:32;;;;;;;;;28.33;22.67;;;;;-147.59;100.00;57188.72;6308162;22;45361;-89
2022/01/22 11:16:57;;;;;;;;;26.33;23.00;;;;;-147.59;100.00;57188.72;6280306;22;45515;-87
2022/01/22 11:19:32;;;;;;;;;25.00;23.00;;;;;-147.59;100.00;57188.72;6277338;22;48184;-86
2022/01/22 11:22:02;;;;;;;;;26.33;23.00;;;;;-147.59;100.00;57188.72;6277195;22;45577;-88
2022/01/22 11:24:28;;;;;;;;;22.00;22.00;;;;;-147.59;100.00;57188.72;6277479;22;45344;-87
2022/01/22 11:26:57;;;;;;;;;22.00;20.67;;;;;-147.59;100.00;57188.72;6276346;22;45268;-86
2022/01/22 11:29:27;;;;;;;;;27.33;24.67;;;;;-147.59;100.00;57188.72;6276335;22;48307;-87
2022/01/22 11:31:53;;;;;;;;;21.00;20.00;;;;;-147.59;100.00;57188.72;6278174;22;45819;-87
2022/01/22 11:34:22;;;;;;;;;26.67;24.67;;;;;-147.59;100.00;57188.72;6276114;22;45308;-81
2022/01/22 11:36:57;;;;;;;;;22.00;21.67;;;;;-147.59;100.00;57188.72;6303269;22;45562;-79
2022/01/22 11:39:25;;;;;;;;;27.00;23.00;;;;;-147.59;100.00;57188.72;6303120;22;45355;-80
2022/01/22 11:41:58;;;;;;;;;29.67;26.00;;;;;-147.59;100.00;57188.72;6304521;22;45232;-84
2022/01/22 11:44:45;;;;;;;;;20.33;16.67;;;;;-147.59;100.00;57188.72;6259953;22;45349;-85
2022/01/22 11:47:22;;;;;;;;;21.67;15.33;;;;;-147.59;100.00;57188.72;6262782;22;45775;-86
2022/01/22 11:50:03;;;;;;;;;23.67;22.00;;;;;-147.59;100.00;57188.72;6261387;22;47726;-85
2022/01/22 11:52:32;;;;;;;;;20.67;17.67;;;;;-147.59;100.00;57188.72;6264990;22;45620;-85
2022/01/22 11:55:00;;;;;;;;;22.67;20.00;;;;;-147.59;100.00;57188.72;6290783;22;45407;-82
2022/01/22 11:57:28;;;;;;;;;29.67;23.67;;;;;-147.59;100.00;57188.72;6263884;22;45566;-86
2022/01/22 12:00:17;;;;;;;;;20.67;18.33;;;;;-147.59;100.00;57188.72;6263084;22;47844;-89
2022/01/22 12:02:43;;;;;;;;;25.00;22.00;;;;;-147.59;100.00;57188.72;6266483;22;45979;-84
2022/01/22 12:05:09;;;;;;;;;20.67;19.67;;;;;-147.59;100.00;57188.72;6295236;22;45434;-87
2022/01/22 12:07:35;;;;;;;;;26.67;22.67;;;;;-147.59;100.00;57188.72;6294012;22;45435;-88
2022/01/22 12:15:57;;;;;;;;;22.00;19.00;;;;;-147.59;100.00;57188.72;6298357;22;45319;-85
2022/01/22 12:18:32;;;;;;;;;27.33;23.33;;;;;-147.59;100.00;57188.72;6291756;22;46066;-85
2022/01/22 12:23:29;;;;;;;;;24.67;21.33;;;;;-147.59;100.00;57188.72;6294786;22;45569;-87
2022/01/22 12:25:55;;;;;;;;;20.67;19.00;;;;;-147.59;100.00;57188.72;6301700;22;45396;-91
2022/01/22 12:28:41;;;;;;;;;23.00;22.67;;;;;-147.59;100.00;57188.72;6304453;22;45572;-85
2022/01/22 12:31:14;;;;;;;;;24.33;20.33;;;;;-147.59;100.00;57188.72;6305966;22;45478;-89
2022/01/22 12:33:39;;;;;;;;;24.67;21.00;;;;;-147.59;100.00;57188.72;6304736;22;45155;-89
2022/01/22 12:36:10;;;;;;;;;25.67;21.33;;;;;-147.59;100.00;57188.72;6304750;22;45127;-89
2022/01/22 12:41:26;;;;;;;;;25.00;22.67;;;;;-147.59;100.00;57188.72;6305330;22;45331;-88
2022/01/22 12:44:12;;;;;;;;;25.33;24.33;;;;;-147.59;100.00;57188.72;6305349;22;45617;-89
2022/01/22 12:46:38;;;;;;;;;21.33;20.00;;;;;-147.59;100.00;57188.72;6305011;22;45122;-89
2022/01/22 12:49:07;;;;;;;;;33.00;29.67;;;;;-147.59;100.00;57188.72;6305056;22;45491;-89
2022/01/22 12:51:34;;;;;;;;;30.67;25.33;;;;;-147.59;100.00;57188.72;6304595;22;47179;-89
2022/01/22 12:54:00;;;;;;;;;28.67;23.67;;;;;-147.59;100.00;57188.72;6304299;22;45807;-89
2022/01/22 12:59:01;;;;;;;;;23.67;21.00;;;;;-147.59;100.00;57188.72;6306480;22;45449;-89
2022/01/22 13:01:28;;;;;;;;;24.33;22.00;;;;;-147.59;100.00;57188.72;6303425;22;46256;-86
2022/01/22 13:03:56;;;;;;;;;23.67;21.33;;;;;-147.59;100.00;57188.72;6304059;22;45448;-88
2022/01/22 13:06:25;;;;;;;;;31.33;26.00;;;;;-147.59;100.00;57188.72;6304400;22;45268;-90
2022/01/22 13:08:57;;;;;;;;;27.00;22.67;;;;;-147.59;100.00;57188.72;6301818;22;45477;-92
2022/01/22 13:11:28;;;;;;;;;29.33;22.67;;;;;-147.59;100.00;57188.72;6293411;22;47247;-92
2022/01/22 13:13:54;;;;;;;;;25.00;20.33;;;;;-147.59;100.00;57188.72;6305703;22;45422;-92
2022/01/22 13:16:21;;;;;;;;;19.67;18.00;;;;;-147.59;100.00;57188.72;6300244;22;45478;-90
2022/01/22 13:18:58;;;;;;;;;20.33;15.00;;;;;-147.59;100.00;57188.72;6301110;22;45466;-94
2022/01/22 13:21:28;;;;;;;;;24.67;20.00;;;;;-147.59;100.00;57188.72;6306570;22;46098;-96